Time;durP1;ratioP1;P1;durP2;ratioP2;P2;SDS_P1;SDS_P2;PMS_P1;PMS_P2;Temp;Humidity;BMP_temperature;BMP_pressure;BME280_temperature;BME280_humidity;BME280_pressure;Samples;Min_cycle;Max_cycle;Signal;HPM_P1;HPM_P2
2022/04/07 00:00:41;;;;;;;4.87;4.40;;;7.60;77.10;;;;;;6299465;28;20189;-64
2022/04/07 00:03:42;;;;;;;5.77;4.67;;;7.60;77.00;;;;;;6298782;28;20222;-64
2022/04/07 00:06:43;;;;;;;5.93;5.37;;;7.70;76.90;;;;;;6300025;28;20202;-64
2022/04/07 00:09:44;;;;;;;5.67;4.87;;;7.70;77.00;;;;;;6283222;28;20185;-64
2022/04/07 00:12:45;;;;;;;6.50;4.83;;;7.80;77.20;;;;;;6278969;28;20225;-63
2022/04/07 00:15:46;;;;;;;6.37;5.17;;;7.80;76.90;;;;;;6274361;28;20188;-63
2022/04/07 00:18:47;;;;;;;6.83;4.97;;;7.80;77.00;;;;;;6259287;28;20204;-63
2022/04/07 00:21:47;;;;;;;5.57;5.03;;;7.80;77.30;;;;;;6282272;28;20252;-64
2022/04/07 00:24:48;;;;;;;6.07;5.13;;;7.70;77.30;;;;;;6294404;28;20240;-64
2022/04/07 00:27:49;;;;;;;6.23;4.97;;;7.60;77.60;;;;;;6293431;28;20198;-66
2022/04/07 00:30:51;;;;;;;6.30;4.67;;;7.60;78.00;;;;;;6273363;28;20276;-66
2022/04/07 00:33:52;;;;;;;5.97;5.17;;;7.50;77.40;;;;;;6243836;28;20205;-67
2022/04/07 00:36:53;;;;;;;6.47;5.87;;;7.40;77.10;;;;;;6283552;28;20192;-67
2022/04/07 00:39:53;;;;;;;6.13;5.33;;;7.30;77.70;;;;;;6287083;28;20186;-68
2022/04/07 00:42:55;;;;;;;6.03;5.03;;;7.30;78.10;;;;;;6257170;28;20307;-68
2022/04/07 00:45:56;;;;;;;7.27;5.20;;;7.30;78.60;;;;;;6274224;28;20182;-67
2022/04/07 00:48:57;;;;;;;7.23;4.93;;;7.20;78.30;;;;;;6270382;28;20196;-67
2022/04/07 00:51:58;;;;;;;5.17;4.33;;;7.10;78.50;;;;;;6281098;28;20177;-66
2022/04/07 00:54:59;;;;;;;6.30;5.07;;;7.10;79.00;;;;;;6295245;28;20184;-65
2022/04/07 00:58:01;;;;;;;5.80;4.63;;;7.10;79.10;;;;;;6298543;28;20193;-66
2022/04/07 01:01:02;;;;;;;4.67;4.20;;;7.10;79.40;;;;;;6281446;28;20339;-65
2022/04/07 01:04:03;;;;;;;6.20;4.57;;;7.10;79.50;;;;;;6271386;28;20212;-65
2022/04/07 01:07:09;;;;;;;4.93;4.43;;;7.10;78.80;;;;;;6296323;28;20185;-66
2022/04/07 01:10:10;;;;;;;5.67;4.93;;;7.10;78.20;;;;;;6280973;28;20259;-66
2022/04/07 01:13:12;;;;;;;5.73;4.87;;;7.00;78.80;;;;;;6280973;28;20196;-67
2022/04/07 01:16:14;;;;;;;5.33;4.73;;;6.90;78.90;;;;;;6258022;28;20250;-65
2022/04/07 01:19:14;;;;;;;5.30;4.53;;;6.90;79.30;;;;;;6273474;28;20189;-66
2022/04/07 01:22:16;;;;;;;5.27;4.77;;;6.90;79.60;;;;;;6256657;28;20263;-65
2022/04/07 01:25:17;;;;;;;4.57;4.17;;;6.80;79.70;;;;;;6281948;28;20193;-66
2022/04/07 01:28:17;;;;;;;5.67;4.43;;;6.80;79.80;;;;;;6257565;28;20245;-65
2022/04/07 01:31:18;;;;;;;6.97;5.47;;;6.80;80.10;;;;;;6269760;28;20185;-64
2022/04/07 01:34:19;;;;;;;5.63;4.50;;;6.80;80.20;;;;;;6272754;28;20200;-65
2022/04/07 01:37:20;;;;;;;6.13;4.93;;;6.70;80.60;;;;;;6245204;28;20189;-65
2022/04/07 01:40:26;;;;;;;6.67;5.33;;;6.80;80.70;;;;;;6248173;28;20243;-65
2022/04/07 01:43:28;;;;;;;6.20;5.60;;;6.80;80.70;;;;;;6279636;28;20226;-65
2022/04/07 01:46:29;;;;;;;5.53;4.90;;;6.90;80.70;;;;;;6261443;28;20277;-66
2022/04/07 01:49:33;;;;;;;6.57;5.60;;;7.00;80.80;;;;;;6288879;28;20189;-65
2022/04/07 01:52:39;;;;;;;5.30;4.80;;;7.10;81.00;;;;;;6291212;28;20190;-65
2022/04/07 01:55:41;;;;;;;8.47;5.57;;;7.10;80.70;;;;;;6262078;28;20196;-64
2022/04/07 01:58:42;;;;;;;6.10;5.40;;;7.20;80.90;;;;;;6274253;28;20194;-66
2022/04/07 02:01:43;;;;;;;8.50;6.40;;;7.30;80.90;;;;;;6271071;28;20245;-66
2022/04/07 02:05:00;;;;;;;10.20;5.80;;;7.30;80.80;;;;;;6261665;28;20217;-66
2022/04/07 02:08:01;;;;;;;8.33;5.83;;;7.40;80.50;;;;;;6306314;28;20170;-64
2022/04/07 02:11:02;;;;;;;9.87;6.00;;;7.40;80.60;;;;;;6274194;28;20193;-66
2022/04/07 02:14:02;;;;;;;6.23;5.63;;;7.50;80.50;;;;;;6272566;28;20248;-65
2022/04/07 02:17:03;;;;;;;6.90;5.40;;;7.40;80.20;;;;;;6269323;28;20185;-65
2022/04/07 02:20:07;;;;;;;5.30;4.80;;;7.50;80.10;;;;;;6291943;28;20197;-64
2022/04/07 02:23:07;;;;;;;7.80;5.43;;;7.40;80.10;;;;;;6310784;28;20194;-65
2022/04/07 02:26:12;;;;;;;8.57;5.27;;;7.40;80.30;;;;;;6286990;28;20197;-65
2022/04/07 02:29:13;;;;;;;4.93;4.43;;;7.50;80.40;;;;;;6268739;28;20262;-65
2022/04/07 02:32:14;;;;;;;8.57;4.77;;;7.40;80.20;;;;;;6252209;28;20186;-65
2022/04/07 02:35:15;;;;;;;6.50;4.60;;;7.40;80.10;;;;;;6235430;28;20195;-64
2022/04/07 02:38:15;;;;;;;5.50;4.20;;;7.50;80.00;;;;;;6251849;28;20197;-65
2022/04/07 02:41:16;;;;;;;6.67;4.60;;;7.50;80.00;;;;;;6252209;28;20182;-65
2022/04/07 02:44:18;;;;;;;4.83;4.10;;;7.60;79.90;;;;;;6245316;28;20205;-64
2022/04/07 02:47:19;;;;;;;5.73;4.07;;;7.60;79.60;;;;;;6248533;28;20201;-65
2022/04/07 02:50:19;;;;;;;4.83;3.77;;;7.60;79.40;;;;;;6260275;28;20189;-65
2022/04/07 02:53:20;;;;;;;4.57;3.43;;;7.60;79.60;;;;;;6259748;28;20193;-65
2022/04/07 02:56:21;;;;;;;5.13;3.30;;;7.60;79.50;;;;;;6275263;28;20198;-65
2022/04/07 02:59:22;;;;;;;6.27;4.17;;;7.70;79.20;;;;;;6218498;28;20205;-65
2022/04/07 03:02:22;;;;;;;4.63;3.80;;;7.70;78.70;;;;;;6254143;28;20225;-65
2022/04/07 03:05:23;;;;;;;4.77;3.37;;;7.70;78.80;;;;;;6249044;28;20193;-67
2022/04/07 03:08:24;;;;;;;4.90;3.03;;;7.80;78.60;;;;;;6265873;28;20225;-66
2022/04/07 03:11:25;;;;;;;2.97;2.60;;;7.80;78.00;;;;;;6251559;28;20194;-66
2022/04/07 03:14:27;;;;;;;5.57;3.00;;;7.80;77.40;;;;;;6254063;28;20217;-66
2022/04/07 03:17:28;;;;;;;3.03;2.30;;;7.90;77.50;;;;;;6270190;28;20198;-66
2022/04/07 03:20:28;;;;;;;2.70;2.20;;;8.00;76.80;;;;;;6253179;28;20200;-66
2022/04/07 03:23:29;;;;;;;3.03;1.97;;;8.10;76.10;;;;;;6269824;28;20284;-66
2022/04/07 03:26:30;;;;;;;2.40;2.20;;;8.20;75.10;;;;;;6248268;28;20188;-64
2022/04/07 03:29:31;;;;;;;2.57;2.33;;;8.30;74.80;;;;;;6264055;28;20230;-65
2022/04/07 03:32:32;;;;;;;2.77;2.13;;;8.40;74.10;;;;;;6270884;28;20232;-65
2022/04/07 03:35:34;;;;;;;2.50;2.27;;;8.50;73.70;;;;;;6289016;28;20274;-66
2022/04/07 03:38:35;;;;;;;3.83;2.47;;;8.60;73.90;;;;;;6274552;28;20189;-66
2022/04/07 03:41:36;;;;;;;2.37;2.17;;;8.60;74.20;;;;;;6267862;28;20265;-65
2022/04/07 03:44:37;;;;;;;3.17;1.97;;;8.60;74.10;;;;;;6241744;28;20213;-65
2022/04/07 03:47:37;;;;;;;3.07;2.33;;;8.60;74.40;;;;;;6232681;28;20197;-64
2022/04/07 03:50:38;;;;;;;2.60;2.20;;;8.60;74.10;;;;;;6258443;28;20189;-65
2022/04/07 03:53:39;;;;;;;3.00;2.43;;;8.50;74.20;;;;;;6298598;28;20243;-64
2022/04/07 03:56:40;;;;;;;4.47;2.47;;;8.50;74.40;;;;;;6299280;28;20199;-65
2022/04/07 03:59:42;;;;;;;3.30;2.50;;;8.50;74.20;;;;;;6325131;28;20196;-65
2022/04/07 04:02:43;;;;;;;2.87;2.33;;;8.50;73.90;;;;;;6315500;28;20219;-64
2022/04/07 04:05:44;;;;;;;3.97;2.40;;;8.50;74.00;;;;;;6308191;28;20188;-64
2022/04/07 04:08:45;;;;;;;3.00;2.43;;;8.50;74.70;;;;;;6268179;28;20188;-64
2022/04/07 04:11:46;;;;;;;3.13;2.50;;;8.40;74.60;;;;;;6282998;28;20185;-64
2022/04/07 04:14:46;;;;;;;6.17;2.47;;;8.50;74.60;;;;;;6286365;28;20193;-64
2022/04/07 04:17:47;;;;;;;3.10;2.53;;;8.40;74.70;;;;;;6288023;28;20196;-64
2022/04/07 04:20:48;;;;;;;3.70;2.53;;;8.40;74.40;;;;;;6282844;28;20197;-64
2022/04/07 04:23:49;;;;;;;3.33;2.43;;;8.50;74.20;;;;;;6286584;28;20240;-63
2022/04/07 04:26:50;;;;;;;3.53;1.93;;;8.50;73.70;;;;;;6266417;28;20216;-63
2022/04/07 04:29:50;;;;;;;3.83;3.10;;;8.60;74.30;;;;;;6291893;28;20247;-63
2022/04/07 04:32:52;;;;;;;4.03;2.50;;;8.60;74.50;;;;;;6299097;28;20204;-63
2022/04/07 04:35:53;;;;;;;3.70;1.90;;;8.60;74.60;;;;;;6268112;28;20192;-64
2022/04/07 04:38:54;;;;;;;3.40;2.40;;;8.60;74.40;;;;;;6291116;28;20188;-64
2022/04/07 04:41:55;;;;;;;3.87;2.50;;;8.60;74.40;;;;;;6290914;28;20220;-64
2022/04/07 04:44:55;;;;;;;2.90;2.07;;;8.60;74.80;;;;;;6289721;28;20268;-64
2022/04/07 04:47:56;;;;;;;3.77;2.50;;;8.60;74.20;;;;;;6298599;28;20303;-65
2022/04/07 04:50:57;;;;;;;4.10;2.37;;;8.60;74.40;;;;;;6264803;28;20177;-65
2022/04/07 04:53:58;;;;;;;3.33;2.50;;;8.70;74.10;;;;;;6264876;28;20215;-64
2022/04/07 04:56:59;;;;;;;3.03;2.33;;;8.70;74.60;;;;;;6266314;28;20188;-63
2022/04/07 05:00:00;;;;;;;3.63;2.20;;;8.70;74.20;;;;;;6282583;28;20192;-63
2022/04/07 05:03:01;;;;;;;3.40;2.17;;;8.70;74.60;;;;;;6299180;28;20279;-64
2022/04/07 05:06:02;;;;;;;2.30;2.10;;;8.80;74.80;;;;;;6282679;28;20179;-64
2022/04/07 05:09:04;;;;;;;2.70;1.90;;;8.80;74.70;;;;;;6300188;28;20184;-64
2022/04/07 05:12:05;;;;;;;4.47;2.43;;;8.80;75.00;;;;;;6293659;28;20221;-64
2022/04/07 05:15:07;;;;;;;2.67;2.40;;;8.90;74.30;;;;;;6286949;28;20190;-65
2022/04/07 05:18:08;;;;;;;2.50;2.10;;;9.00;74.50;;;;;;6312354;28;20193;-64
2022/04/07 05:21:09;;;;;;;2.00;1.80;;;9.20;73.90;;;;;;6281788;28;20188;-65
2022/04/07 05:24:10;;;;;;;2.87;2.13;;;9.30;73.90;;;;;;6271876;28;20313;-64
2022/04/07 05:27:11;;;;;;;3.30;2.33;;;9.30;73.20;;;;;;6292490;28;20219;-63
2022/04/07 05:30:15;;;;;;;2.20;1.80;;;9.40;74.00;;;;;;6307822;28;20315;-64
2022/04/07 05:33:17;;;;;;;3.90;2.40;;;9.40;73.80;;;;;;6298062;28;20190;-63
2022/04/07 05:36:18;;;;;;;2.90;1.83;;;9.60;73.40;;;;;;6316577;28;20192;-64
2022/04/07 05:39:19;;;;;;;3.20;2.50;;;9.70;73.50;;;;;;6305192;28;20271;-65
2022/04/07 05:42:19;;;;;;;2.20;1.90;;;9.80;73.80;;;;;;6284447;28;20212;-63
2022/04/07 05:45:21;;;;;;;2.67;2.17;;;9.80;72.00;;;;;;6291193;28;20185;-64
2022/04/07 05:48:22;;;;;;;2.70;1.60;;;9.90;72.40;;;;;;6297011;28;20248;-63
2022/04/07 05:51:23;;;;;;;4.93;1.87;;;9.90;71.70;;;;;;6297501;28;20191;-64
2022/04/07 05:54:24;;;;;;;2.53;1.90;;;10.00;71.20;;;;;;6282128;28;20223;-63
2022/04/07 05:57:31;;;;;;;3.90;1.93;;;10.10;70.70;;;;;;6301930;28;20196;-63
2022/04/07 06:00:32;;;;;;;2.20;1.77;;;10.20;71.60;;;;;;6301055;28;20205;-64
2022/04/07 06:03:34;;;;;;;4.17;2.07;;;10.20;71.90;;;;;;6299714;28;20319;-63
2022/04/07 06:06:35;;;;;;;3.40;2.03;;;10.30;71.50;;;;;;6283097;28;20204;-64
2022/04/07 06:09:35;;;;;;;2.50;2.10;;;10.30;71.00;;;;;;6282643;28;20181;-64
2022/04/07 06:12:38;;;;;;;3.20;2.10;;;10.40;71.40;;;;;;6266402;28;20333;-64
2022/04/07 06:15:39;;;;;;;2.10;1.40;;;10.40;70.40;;;;;;6298911;28;20193;-63
2022/04/07 06:18:40;;;;;;;2.87;2.10;;;10.50;70.50;;;;;;6281514;28;20193;-64
2022/04/07 06:21:43;;;;;;;3.60;1.97;;;10.60;70.50;;;;;;6267078;28;20227;-63
2022/04/07 06:24:43;;;;;;;5.07;2.03;;;10.70;70.40;;;;;;6266189;28;20250;-63
2022/04/07 06:27:46;;;;;;;2.50;1.90;;;10.70;70.00;;;;;;6298946;28;20184;-63
2022/04/07 06:30:46;;;;;;;2.53;1.50;;;10.80;69.70;;;;;;6297699;28;20205;-63
2022/04/07 06:33:47;;;;;;;5.07;2.10;;;10.90;69.80;;;;;;6291890;28;20196;-64
2022/04/07 06:36:48;;;;;;;5.70;2.20;;;10.90;70.80;;;;;;6274934;28;20193;-64
2022/04/07 06:39:49;;;;;;;2.87;1.53;;;11.00;71.20;;;;;;6297904;28;20197;-63
2022/04/07 06:42:51;;;;;;;2.30;1.80;;;11.10;69.60;;;;;;6282820;28;20230;-64
2022/04/07 06:45:53;;;;;;;2.27;1.73;;;11.10;69.30;;;;;;6299426;28;20186;-63
2022/04/07 06:48:53;;;;;;;2.10;1.50;;;11.30;69.90;;;;;;6240471;28;20189;-64
2022/04/07 06:51:54;;;;;;;2.67;1.70;;;11.30;70.30;;;;;;6286338;28;20201;-63
2022/04/07 06:54:55;;;;;;;1.73;1.50;;;11.50;70.40;;;;;;6267082;28;20223;-64
2022/04/07 06:58:00;;;;;;;3.50;2.07;;;11.50;70.10;;;;;;6292929;28;20227;-64
2022/04/07 07:01:01;;;;;;;2.20;2.00;;;11.60;69.90;;;;;;6288832;28;20190;-64
2022/04/07 07:04:02;;;;;;;3.70;1.93;;;11.60;70.40;;;;;;6312675;28;20227;-64
2022/04/07 07:07:03;;;;;;;2.13;1.87;;;11.70;67.90;;;;;;6282214;28;20416;-63
2022/04/07 07:10:04;;;;;;;2.80;1.80;;;11.80;68.50;;;;;;6298842;28;20291;-63
2022/04/07 07:13:05;;;;;;;5.30;2.03;;;11.80;68.10;;;;;;6299422;28;20196;-64
2022/04/07 07:16:06;;;;;;;2.77;1.80;;;11.90;68.10;;;;;;6281585;28;20266;-63
2022/04/07 07:19:07;;;;;;;2.23;1.83;;;12.00;66.90;;;;;;6281633;28;20200;-64
2022/04/07 07:22:07;;;;;;;4.00;2.20;;;12.10;67.10;;;;;;6282063;28;20220;-64
2022/04/07 07:25:10;;;;;;;3.10;1.73;;;12.20;64.00;;;;;;6298517;28;20239;-64
2022/04/07 07:28:10;;;;;;;4.03;2.47;;;12.30;61.60;;;;;;6293908;28;20242;-63
2022/04/07 07:31:11;;;;;;;3.30;2.07;;;12.40;61.60;;;;;;6273322;28;20185;-64
2022/04/07 07:34:12;;;;;;;4.80;2.20;;;12.50;62.60;;;;;;6273499;28;20190;-64
2022/04/07 07:37:17;;;;;;;2.60;2.03;;;12.70;62.00;;;;;;6290630;28;20200;-64
2022/04/07 07:40:21;;;;;;;4.60;2.93;;;12.80;59.50;;;;;;6287332;28;20190;-63
2022/04/07 07:43:21;;;;;;;2.80;2.07;;;12.90;60.30;;;;;;6271943;28;20209;-64
2022/04/07 07:46:22;;;;;;;7.20;2.57;;;13.00;60.10;;;;;;6275553;28;20197;-63
2022/04/07 07:49:23;;;;;;;4.50;2.70;;;13.20;58.50;;;;;;6247759;28;20189;-64
2022/04/07 07:52:24;;;;;;;5.73;2.03;;;13.40;60.90;;;;;;6248221;28;20207;-64
2022/04/07 07:55:25;;;;;;;3.07;2.30;;;13.60;58.60;;;;;;6249203;28;20195;-64
2022/04/07 07:58:26;;;;;;;6.33;2.73;;;13.80;56.70;;;;;;6295458;28;20271;-64
2022/04/07 08:01:27;;;;;;;4.73;2.60;;;13.90;57.00;;;;;;6289867;28;20197;-63
2022/04/07 08:04:28;;;;;;;2.40;2.07;;;14.00;56.10;;;;;;6271234;28;20212;-63
2022/04/07 08:07:29;;;;;;;4.43;2.13;;;14.10;53.40;;;;;;6272445;28;20190;-64
2022/04/07 08:10:30;;;;;;;3.50;2.17;;;14.30;54.30;;;;;;6255616;28;20186;-64
2022/04/07 08:13:31;;;;;;;4.37;2.10;;;14.50;52.90;;;;;;6277954;28;20212;-64
2022/04/07 08:16:31;;;;;;;3.63;2.20;;;14.60;52.60;;;;;;6272365;28;20228;-63
2022/04/07 08:19:35;;;;;;;4.40;1.70;;;14.80;52.20;;;;;;6271554;28;20193;-63
2022/04/07 08:22:36;;;;;;;4.87;1.67;;;14.90;51.50;;;;;;6272736;28;20260;-63
2022/04/07 08:25:36;;;;;;;2.93;1.50;;;15.00;50.50;;;;;;6271876;28;20189;-64
2022/04/07 08:28:38;;;;;;;6.43;3.10;;;15.10;50.20;;;;;;6272068;28;20263;-63
2022/04/07 08:31:39;;;;;;;4.47;2.27;;;15.20;50.70;;;;;;6289107;28;20190;-63
2022/04/07 08:34:39;;;;;;;3.50;2.50;;;15.30;50.20;;;;;;6288587;28;20223;-64
2022/04/07 08:37:40;;;;;;;2.50;1.87;;;15.40;49.70;;;;;;6288868;28;20194;-64
2022/04/07 08:40:41;;;;;;;3.47;2.03;;;15.60;51.00;;;;;;6287612;28;20292;-64
2022/04/07 08:43:42;;;;;;;2.60;1.20;;;15.80;49.20;;;;;;6288095;28;20228;-63
2022/04/07 08:47:02;;;;;;;5.70;2.10;;;15.90;46.80;;;;;;6271184;28;20190;-64
2022/04/07 08:50:04;;;;;;;2.57;1.80;;;16.20;47.00;;;;;;6283581;28;20175;-64
2022/04/07 08:53:05;;;;;;;2.77;1.60;;;16.20;46.60;;;;;;6270020;28;20198;-63
2022/04/07 08:56:07;;;;;;;6.37;2.57;;;16.10;45.80;;;;;;6283648;28;20198;-63
2022/04/07 08:59:07;;;;;;;2.63;1.60;;;16.10;47.30;;;;;;6269309;28;20280;-64
2022/04/07 09:02:10;;;;;;;2.93;1.93;;;16.00;46.70;;;;;;6287673;28;20190;-64
2022/04/07 09:05:11;;;;;;;10.43;2.70;;;16.00;47.70;;;;;;6272768;28;20174;-64
2022/04/07 09:08:12;;;;;;;6.07;2.63;;;16.40;46.70;;;;;;6249713;28;20189;-64
2022/04/07 09:11:13;;;;;;;5.53;2.13;;;16.80;46.60;;;;;;6287791;28;20189;-64
2022/04/07 09:14:14;;;;;;;3.63;3.20;;;17.00;46.00;;;;;;6286812;28;20220;-64
2022/04/07 09:17:15;;;;;;;3.37;2.03;;;17.30;46.10;;;;;;6271321;28;20205;-64
2022/04/07 09:20:16;;;;;;;2.93;1.50;;;17.70;45.40;;;;;;6254417;28;20205;-64
2022/04/07 09:23:18;;;;;;;7.23;1.77;;;17.50;43.80;;;;;;6287376;28;20210;-64
2022/04/07 09:26:18;;;;;;;1.40;1.13;;;17.30;43.90;;;;;;6254657;28;20190;-64
2022/04/07 09:29:19;;;;;;;5.17;1.27;;;17.00;43.60;;;;;;6273246;28;20261;-64
2022/04/07 09:32:25;;;;;;;1.73;1.33;;;17.00;43.50;;;;;;6276108;28;20278;-64
2022/04/07 09:35:26;;;;;;;3.97;1.53;;;16.80;44.10;;;;;;6310207;28;20186;-64
2022/04/07 09:38:29;;;;;;;1.50;1.40;;;16.80;44.60;;;;;;6276415;28;20193;-63
2022/04/07 09:41:31;;;;;;;2.17;1.30;;;16.80;43.90;;;;;;6292606;28;20193;-63
2022/04/07 09:44:37;;;;;;;1.37;0.90;;;16.80;43.10;;;;;;6292734;28;20300;-63
2022/04/07 09:47:46;;;;;;;1.20;1.00;;;16.80;43.90;;;;;;6275472;28;20206;-63
2022/04/07 09:51:04;;;;;;;1.27;0.93;;;16.80;42.70;;;;;;6292854;28;20266;-64
2022/04/07 09:54:09;;;;;;;2.30;1.63;;;16.90;43.90;;;;;;6274510;28;20209;-64
2022/04/07 09:57:10;;;;;;;2.77;1.47;;;17.00;44.90;;;;;;6289788;28;20220;-64
2022/04/07 10:00:12;;;;;;;2.77;1.30;;;17.20;43.50;;;;;;6291823;28;20213;-64
2022/04/07 10:03:13;;;;;;;1.30;1.20;;;17.40;42.90;;;;;;6291167;28;20221;-59
2022/04/07 10:06:16;;;;;;;3.40;1.03;;;17.50;43.20;;;;;;6292261;28;20195;-59
2022/04/07 10:09:19;;;;;;;1.20;1.10;;;17.60;41.60;;;;;;6275054;28;20189;-58
2022/04/07 10:12:21;;;;;;;1.43;1.33;;;17.40;41.60;;;;;;6309353;28;20175;-59
2022/04/07 10:15:23;;;;;;;1.80;1.13;;;17.40;40.60;;;;;;6273627;28;20210;-58
2022/04/07 10:18:44;;;;;;;1.47;1.03;;;17.30;42.30;;;;;;6258527;28;20198;-58
2022/04/07 10:22:03;;;;;;;3.03;1.27;;;17.30;43.10;;;;;;6291994;28;20210;-59
2022/04/07 10:25:06;;;;;;;1.33;0.93;;;17.30;42.00;;;;;;6294069;28;20283;-59
2022/04/07 10:28:07;;;;;;;1.00;1.00;;;17.10;42.20;;;;;;6269803;28;20237;-58
2022/04/07 10:31:15;;;;;;;0.87;0.80;;;17.20;42.20;;;;;;6264580;28;20216;-58
2022/04/07 10:34:31;;;;;;;1.40;1.10;;;17.20;42.50;;;;;;6259057;28;20206;-58
2022/04/07 10:37:45;;;;;;;1.77;1.00;;;17.20;42.70;;;;;;6275158;28;20186;-58
2022/04/07 10:40:49;;;;;;;0.80;0.77;;;17.20;44.30;;;;;;6257366;28;20220;-58
2022/04/07 10:44:26;;;;;;;1.23;0.97;;;17.10;43.50;;;;;;6308492;28;20255;-58
2022/04/07 10:47:27;;;;;;;1.03;0.90;;;17.20;42.20;;;;;;6241292;28;20233;-58
2022/04/07 10:50:29;;;;;;;1.13;1.03;;;17.30;43.90;;;;;;6249183;28;20251;-58
2022/04/07 10:53:53;;;;;;;1.10;1.00;;;17.30;40.80;;;;;;6281832;28;20240;-59
2022/04/07 10:56:56;;;;;;;2.40;1.13;;;17.20;41.10;;;;;;6262570;28;20224;-58
2022/04/07 11:00:02;;;;;;;1.13;0.97;;;17.30;41.10;;;;;;6259744;28;20190;-59
2022/04/07 11:03:16;;;;;;;1.33;1.03;;;17.30;40.40;;;;;;6303016;28;20220;-58
2022/04/07 11:06:22;;;;;;;1.57;1.07;;;17.30;40.50;;;;;;6306896;28;20190;-59
2022/04/07 11:09:22;;;;;;;2.03;1.03;;;17.40;40.50;;;;;;6259537;28;20273;-59
2022/04/07 11:12:31;;;;;;;1.10;1.00;;;17.50;41.30;;;;;;6259221;28;20193;-58
2022/04/07 11:15:49;;;;;;;1.30;0.80;;;17.70;42.50;;;;;;6275917;28;20190;-59
2022/04/07 11:19:15;;;;;;;1.27;1.07;;;17.90;39.80;;;;;;6309749;28;20189;-59
2022/04/07 11:22:19;;;;;;;1.00;0.87;;;18.00;40.90;;;;;;6332137;28;20185;-58
2022/04/07 11:25:32;;;;;;;2.97;0.90;;;18.20;39.60;;;;;;6283082;28;20297;-58
2022/04/07 11:28:37;;;;;;;1.83;0.97;;;18.40;38.20;;;;;;6282408;28;20234;-59
2022/04/07 11:31:46;;;;;;;0.80;0.80;;;18.60;38.50;;;;;;6247648;28;20465;-58
2022/04/07 11:34:50;;;;;;;1.17;1.00;;;18.80;39.40;;;;;;6258976;28;20198;-59
2022/04/07 11:37:51;;;;;;;0.80;0.80;;;18.90;37.40;;;;;;6258848;28;20179;-59
2022/04/07 11:41:12;;;;;;;1.10;0.93;;;19.10;38.20;;;;;;6259064;28;20189;-59
2022/04/07 11:44:14;;;;;;;1.10;0.97;;;19.30;37.00;;;;;;6271300;28;20238;-59
2022/04/07 11:47:36;;;;;;;1.03;0.93;;;19.40;36.90;;;;;;6225894;28;20716;-59
2022/04/07 11:50:39;;;;;;;1.40;0.90;;;19.70;37.00;;;;;;6244299;28;20277;-59
2022/04/07 11:53:40;;;;;;;0.80;0.80;;;19.80;35.60;;;;;;6274308;28;20195;-59
2022/04/07 11:56:41;;;;;;;0.77;0.77;;;20.00;36.40;;;;;;6274004;28;20196;-59
2022/04/07 11:59:43;;;;;;;1.80;0.70;;;20.20;35.30;;;;;;6244636;28;20197;-59
2022/04/07 12:03:03;;;;;;;2.00;0.73;;;20.60;35.50;;;;;;6274769;28;20213;-58
2022/04/07 12:06:05;;;;;;;1.67;0.80;;;20.70;36.20;;;;;;6270893;28;20265;-59
2022/04/07 12:09:06;;;;;;;1.90;1.00;;;21.00;34.60;;;;;;6241982;28;20185;-59
2022/04/07 12:12:07;;;;;;;0.90;0.90;;;21.30;33.40;;;;;;6244049;28;20186;-59
2022/04/07 12:15:14;;;;;;;0.87;0.80;;;21.30;34.00;;;;;;6224378;28;20239;-59
2022/04/07 12:18:27;;;;;;;2.30;1.03;;;21.80;33.20;;;;;;6240194;28;20205;-59
2022/04/07 12:21:29;;;;;;;1.63;0.90;;;23.60;31.70;;;;;;6267300;28;20330;-59
2022/04/07 12:24:30;;;;;;;1.60;0.80;;;28.30;25.90;;;;;;6252006;28;20214;-60
2022/04/07 12:27:33;;;;;;;1.23;1.13;;;31.70;22.20;;;;;;6276730;28;20270;-59
2022/04/07 12:30:48;;;;;;;1.57;1.00;;;32.80;19.20;;;;;;6308537;28;20232;-60
2022/04/07 12:33:50;;;;;;;1.00;0.90;;;32.50;19.40;;;;;;6298148;28;20186;-60
2022/04/07 12:36:51;;;;;;;1.03;0.90;;;33.40;19.80;;;;;;6273691;28;20214;-60
2022/04/07 12:39:52;;;;;;;1.83;1.00;;;33.60;19.80;;;;;;6216682;28;20214;-60
2022/04/07 12:42:56;;;;;;;0.63;0.63;;;34.50;19.50;;;;;;6247455;28;20216;-60
2022/04/07 12:45:57;;;;;;;1.07;1.03;;;35.20;17.90;;;;;;6264585;28;20182;-60
2022/04/07 12:49:05;;;;;;;1.03;0.93;;;35.70;17.90;;;;;;6278691;28;20192;-60
2022/04/07 12:52:11;;;;;;;1.07;1.00;;;36.70;17.50;;;;;;6256818;28;20188;-60
2022/04/07 12:55:15;;;;;;;3.60;1.43;;;37.10;16.80;;;;;;6256917;28;20198;-58
2022/04/07 12:58:25;;;;;;;1.50;1.17;;;36.00;16.60;;;;;;6237540;28;20336;-58
2022/04/07 13:01:26;;;;;;;1.10;1.00;;;35.90;16.50;;;;;;6232486;28;20191;-58
2022/04/07 13:04:46;;;;;;;1.40;1.30;;;34.00;18.50;;;;;;6240233;28;20241;-60
2022/04/07 13:07:47;;;;;;;2.37;1.30;;;34.50;18.40;;;;;;6257186;28;20190;-60
2022/04/07 13:10:48;;;;;;;2.23;1.27;;;35.40;17.00;;;;;;6254099;28;20189;-60
2022/04/07 13:13:49;;;;;;;3.87;1.33;;;35.20;17.30;;;;;;6223881;28;20186;-58
2022/04/07 13:16:50;;;;;;;2.60;1.00;;;35.80;17.80;;;;;;6214176;28;20193;-58
2022/04/07 13:19:50;;;;;;;2.07;1.00;;;36.80;16.10;;;;;;6223720;28;20196;-58
2022/04/07 13:22:51;;;;;;;2.50;1.33;;;37.50;15.30;;;;;;6257022;28;20260;-58
2022/04/07 13:25:52;;;;;;;1.93;1.60;;;36.70;15.40;;;;;;6249499;28;20215;-59
2022/04/07 13:28:53;;;;;;;2.10;1.30;;;35.50;16.80;;;;;;6225904;28;20236;-58
2022/04/07 13:31:53;;;;;;;1.67;1.17;;;35.20;17.10;;;;;;6279241;28;20224;-59
2022/04/07 13:34:55;;;;;;;2.70;1.27;;;36.00;16.50;;;;;;6295634;28;20189;-58
2022/04/07 13:37:58;;;;;;;1.53;1.30;;;36.60;16.20;;;;;;6292481;28;20178;-59
2022/04/07 13:41:00;;;;;;;1.53;1.43;;;37.20;16.90;;;;;;6261197;28;21159;-58
2022/04/07 13:44:02;;;;;;;1.60;1.20;;;36.60;16.30;;;;;;6286289;28;20208;-58
2022/04/07 13:47:03;;;;;;;1.60;1.50;;;33.70;18.20;;;;;;6294016;28;20181;-58
2022/04/07 13:50:04;;;;;;;1.50;1.40;;;30.60;21.50;;;;;;6260797;28;20185;-58
2022/04/07 13:53:05;;;;;;;2.03;1.70;;;29.60;22.50;;;;;;6278774;28;20189;-58
2022/04/07 13:56:06;;;;;;;2.80;1.60;;;29.20;22.80;;;;;;6294682;28;20246;-60
2022/04/07 13:59:06;;;;;;;3.10;1.80;;;27.70;24.70;;;;;;6304032;28;20199;-58
2022/04/07 14:02:08;;;;;;;2.40;1.90;;;27.30;26.00;;;;;;6296636;28;20182;-57
2022/04/07 14:05:09;;;;;;;3.87;1.93;;;27.00;24.90;;;;;;6314344;28;20255;-58
2022/04/07 14:08:13;;;;;;;4.00;1.80;;;26.40;26.00;;;;;;6276964;28;20193;-58
2022/04/07 14:11:14;;;;;;;3.17;1.90;;;25.60;27.50;;;;;;6254389;28;20182;-58
2022/04/07 14:14:15;;;;;;;1.90;1.80;;;24.90;28.40;;;;;;6285403;28;20217;-60
2022/04/07 14:17:17;;;;;;;4.00;2.40;;;24.30;29.70;;;;;;6301920;28;20198;-58
2022/04/07 14:20:17;;;;;;;2.13;1.90;;;23.80;30.30;;;;;;6285181;28;20191;-57
2022/04/07 14:23:18;;;;;;;2.13;2.03;;;23.30;31.30;;;;;;6235734;28;20210;-58
2022/04/07 14:26:19;;;;;;;2.10;1.90;;;22.70;32.10;;;;;;6259884;28;20191;-58
2022/04/07 14:29:20;;;;;;;2.40;2.20;;;22.40;33.30;;;;;;6282977;28;20239;-58
2022/04/07 14:32:21;;;;;;;2.83;2.00;;;22.30;33.60;;;;;;6298729;28;20282;-58
2022/04/07 14:35:22;;;;;;;2.40;2.03;;;22.40;33.30;;;;;;6290946;28;20188;-57
2022/04/07 14:38:22;;;;;;;2.13;1.77;;;22.40;34.40;;;;;;6318534;28;20205;-58
2022/04/07 14:41:23;;;;;;;3.30;2.00;;;22.90;34.00;;;;;;6279175;28;20200;-58
2022/04/07 14:44:24;;;;;;;3.63;2.50;;;23.30;31.70;;;;;;6276636;28;20218;-57
2022/04/07 14:47:25;;;;;;;3.87;2.00;;;24.30;30.30;;;;;;6276952;28;20193;-58
2022/04/07 14:50:26;;;;;;;4.00;2.40;;;25.80;29.40;;;;;;6296114;28;20199;-58
2022/04/07 14:53:28;;;;;;;5.70;2.63;;;26.70;26.80;;;;;;6301689;28;20185;-57
2022/04/07 14:56:29;;;;;;;5.00;2.70;;;27.50;26.10;;;;;;6283762;28;20215;-58
2022/04/07 14:59:32;;;;;;;4.67;2.30;;;27.70;25.60;;;;;;6284087;28;20193;-58
2022/04/07 15:02:33;;;;;;;3.47;1.60;;;27.70;25.50;;;;;;6300668;28;20213;-58
2022/04/07 15:05:34;;;;;;;3.63;1.90;;;27.90;25.30;;;;;;6301392;28;20203;-58
2022/04/07 15:08:35;;;;;;;6.00;2.00;;;28.00;25.90;;;;;;6289318;28;20197;-58
2022/04/07 15:11:36;;;;;;;2.77;2.00;;;27.70;23.80;;;;;;6277226;28;20186;-58
2022/04/07 15:14:40;;;;;;;4.23;1.80;;;27.20;25.60;;;;;;6304044;28;20266;-58
2022/04/07 15:17:41;;;;;;;2.13;1.43;;;26.90;25.40;;;;;;6283539;28;20189;-58
2022/04/07 15:20:43;;;;;;;2.70;1.50;;;26.90;26.10;;;;;;6300928;28;20166;-58
2022/04/07 15:23:43;;;;;;;5.67;1.60;;;27.20;26.10;;;;;;6263589;28;20220;-58
2022/04/07 15:26:46;;;;;;;1.57;1.43;;;27.20;26.30;;;;;;6279006;28;20199;-59
2022/04/07 15:29:47;;;;;;;1.80;1.50;;;26.40;25.40;;;;;;6241646;28;20241;-58
2022/04/07 15:32:48;;;;;;;1.77;1.30;;;25.80;25.50;;;;;;6242500;28;20221;-58
2022/04/07 15:35:49;;;;;;;2.80;1.43;;;25.50;27.80;;;;;;6258730;28;20185;-59
2022/04/07 15:38:50;;;;;;;1.50;1.40;;;25.10;27.40;;;;;;6274904;28;20195;-58
2022/04/07 15:41:51;;;;;;;1.67;1.57;;;24.60;27.10;;;;;;6226576;28;20174;-58
2022/04/07 15:44:52;;;;;;;2.13;1.70;;;24.20;27.30;;;;;;6210774;28;20297;-58
2022/04/07 15:47:53;;;;;;;2.80;1.50;;;23.80;28.50;;;;;;6241587;28;20190;-58
2022/04/07 15:50:53;;;;;;;2.00;1.80;;;23.70;28.30;;;;;;6259174;28;20199;-58
2022/04/07 15:53:54;;;;;;;2.70;1.40;;;23.40;28.30;;;;;;6250407;28;20205;-58